TimeEDT,TemperatureF,Dew PointF,Humidity,Sea Level PressureIn,VisibilityMPH,Wind Direction,Wind SpeedMPH,Gust SpeedMPH,PrecipitationIn,Events,Conditions,WindDirDegrees,DateUTC
12:58 AM,70.3,66.7,88,30.26,10.0,East,3.5,-,N/A,,Overcast,80,2013-08-25 04:58:00
1:58 AM,70.9,67.3,88,30.27,10.0,ENE,2.3,-,N/A,,Mostly Cloudy,60,2013-08-25 05:58:00
2:58 AM,70.7,67.5,89,30.27,10.0,Variable,4.6,-,N/A,,Overcast,0,2013-08-25 06:58:00
3:58 AM,70.9,64.0,79,30.28,10.0,East,4.6,-,N/A,,Overcast,90,2013-08-25 07:58:00
4:58 AM,69.6,62.4,78,30.28,10.0,East,5.8,-,N/A,,Scattered Clouds,80,2013-08-25 08:58:00
5:58 AM,67.8,62.2,82,30.29,10.0,Variable,3.5,-,N/A,,Clear,0,2013-08-25 09:58:00
6:58 AM,66.2,62.4,88,30.30,10.0,Variable,2.3,-,N/A,,Mostly Cloudy,0,2013-08-25 10:58:00
7:58 AM,66.4,61.9,85,30.32,10.0,East,5.8,-,N/A,,Partly Cloudy,100,2013-08-25 11:58:00
8:58 AM,69.6,62.6,78,30.34,10.0,East,5.8,-,N/A,,Partly Cloudy,80,2013-08-25 12:58:00
9:58 AM,73.0,63.3,71,30.35,10.0,East,10.4,-,N/A,,Partly Cloudy,100,2013-08-25 13:58:00
10:58 AM,75.2,63.0,66,30.37,10.0,East,9.2,-,N/A,,Mostly Cloudy,90,2013-08-25 14:58:00
11:58 AM,77.7,61.5,57,30.36,10.0,Variable,5.8,-,N/A,,Mostly Cloudy,0,2013-08-25 15:58:00
12:58 PM,79.3,62.4,56,30.33,10.0,Variable,6.9,-,N/A,,Scattered Clouds,0,2013-08-25 16:58:00
1:58 PM,80.1,61.9,54,30.31,10.0,East,5.8,-,N/A,,Scattered Clouds,80,2013-08-25 17:58:00
2:58 PM,80.4,61.9,53,30.29,10.0,NE,6.9,-,N/A,,Mostly Cloudy,40,2013-08-25 18:58:00
3:58 PM,80.4,62.6,54,30.27,10.0,NNE,6.9,-,N/A,,Mostly Cloudy,20,2013-08-25 19:58:00
4:58 PM,81.0,61.9,52,30.26,10.0,Variable,4.6,-,N/A,,Scattered Clouds,0,2013-08-25 20:58:00
5:58 PM,80.4,60.6,51,30.25,10.0,Variable,5.8,-,N/A,,Scattered Clouds,0,2013-08-25 21:58:00
6:58 PM,78.8,61.0,54,30.27,10.0,Variable,5.8,-,N/A,,Scattered Clouds,0,2013-08-25 22:58:00
7:58 PM,75.7,61.0,60,30.28,10.0,Variable,2.3,-,N/A,,Scattered Clouds,0,2013-08-25 23:58:00
8:58 PM,70.5,61.7,74,30.30,10.0,Variable,3.5,-,N/A,,Scattered Clouds,0,2013-08-26 00:58:00
9:58 PM,69.4,61.3,75,30.30,10.0,East,3.5,-,N/A,,Scattered Clouds,80,2013-08-26 01:58:00
10:58 PM,69.3,61.0,75,30.32,10.0,ENE,2.3,-,N/A,,Scattered Clouds,70,2013-08-26 02:58:00
11:58 PM,67.1,61.5,82,30.31,10.0,NE,2.3,-,N/A,,Clear,40,2013-08-26 03:58:00